Time;durP1;ratioP1;P1;durP2;ratioP2;P2;SDS_P1;SDS_P2;PMS_P1;PMS_P2;Temp;Humidity;BMP_temperature;BMP_pressure;BME280_temperature;BME280_humidity;BME280_pressure;Samples;Min_cycle;Max_cycle;Signal;HPM_P1;HPM_P2
2022/04/10 00:00:18;;;;;;;;;;;2.70;99.90;;;;;;5074611;28;19927;-72
2022/04/10 00:02:45;;;;;;;;;;;2.70;99.90;;;;;;5082890;28;19931;-73
2022/04/10 00:05:11;;;;;;;;;;;2.70;99.90;;;;;;5083069;28;20135;-72
2022/04/10 00:07:39;;;;;;;;;;;2.70;99.90;;;;;;5081311;28;19920;-72
2022/04/10 00:10:06;;;;;;;;;;;2.70;99.90;;;;;;5082946;28;19921;-72
2022/04/10 00:12:33;;;;;;;;;;;2.60;99.90;;;;;;5082121;28;19924;-71
2022/04/10 00:15:00;;;;;;;;;;;2.60;99.90;;;;;;5082534;28;20204;-72
2022/04/10 00:17:26;;;;;;;;;;;2.50;99.90;;;;;;5082470;28;19924;-72
2022/04/10 00:19:53;;;;;;;;;;;2.50;99.90;;;;;;5082871;28;19924;-72
2022/04/10 00:22:19;;;;;;;;;;;2.50;99.90;;;;;;5082625;28;19924;-72
2022/04/10 00:24:47;;;;;;;;;;;2.50;99.90;;;;;;5082842;28;19921;-72
2022/04/10 00:27:14;;;;;;;;;;;2.40;99.90;;;;;;5080357;28;19928;-72
2022/04/10 00:29:41;;;;;;;;;;;2.40;99.90;;;;;;5067285;28;20183;-72
2022/04/10 00:32:08;;;;;;;;;;;2.40;99.90;;;;;;5082526;28;19920;-74
2022/04/10 00:34:35;;;;;;;;;;;2.40;99.90;;;;;;5082398;28;19927;-72
2022/04/10 00:37:01;;;;;;;;;;;2.40;99.90;;;;;;5082147;28;19927;-72
2022/04/10 00:39:28;;;;;;;;;;;2.40;99.90;;;;;;5068173;28;20196;-71
2022/04/10 00:41:56;;;;;;;;;;;2.50;99.90;;;;;;5081551;28;19924;-72
2022/04/10 00:44:23;;;;;;;;;;;2.50;99.90;;;;;;5074085;28;19980;-72
2022/04/10 00:46:50;;;;;;;;;;;2.50;99.90;;;;;;5071531;28;19935;-72
2022/04/10 00:49:19;;;;;;;;;;;2.50;99.90;;;;;;5063823;28;19959;-73
2022/04/10 00:51:46;;;;;;;;;;;2.40;99.90;;;;;;5071305;28;19920;-72
2022/04/10 00:54:14;;;;;;;;;;;2.40;99.90;;;;;;5086629;28;19924;-72
2022/04/10 00:56:41;;;;;;;;;;;2.40;99.90;;;;;;5085092;28;19929;-72
2022/04/10 00:59:09;;;;;;;;;;;2.40;99.90;;;;;;5083183;28;19928;-72
2022/04/10 01:01:36;;;;;;;;;;;2.40;99.90;;;;;;5085137;28;19925;-72
2022/04/10 01:04:03;;;;;;;;;;;2.40;99.90;;;;;;5084809;28;19920;-71
2022/04/10 01:06:30;;;;;;;;;;;2.40;99.90;;;;;;5072262;28;19936;-72
2022/04/10 01:08:57;;;;;;;;;;;2.30;99.90;;;;;;5079192;28;20208;-72
2022/04/10 01:11:24;;;;;;;;;;;2.30;99.90;;;;;;5067048;28;19963;-72
2022/04/10 01:13:52;;;;;;;;;;;2.20;99.90;;;;;;5071964;28;19921;-72
2022/04/10 01:16:20;;;;;;;;;;;2.10;99.90;;;;;;5073731;28;19921;-71
2022/04/10 01:18:47;;;;;;;;;;;2.10;99.90;;;;;;5085598;28;20115;-71
2022/04/10 01:21:16;;;;;;;;;;;2.10;99.90;;;;;;5085529;28;20092;-73
2022/04/10 01:23:45;;;;;;;;;;;2.10;99.90;;;;;;5085383;28;20120;-72
2022/04/10 01:26:12;;;;;;;;;;;2.00;99.90;;;;;;5085255;28;19920;-72
2022/04/10 01:28:54;;;;;;;;;;;2.00;99.90;;;;;;5085537;28;19943;-71
2022/04/10 01:31:20;;;;;;;;;;;2.10;99.90;;;;;;5085316;28;20212;-72
2022/04/10 01:33:47;;;;;;;;;;;2.10;99.90;;;;;;5072831;28;20211;-71
2022/04/10 01:36:14;;;;;;;;;;;2.10;99.90;;;;;;5090445;23;19958;-72
2022/04/10 01:38:42;;;;;;;;;;;2.10;99.90;;;;;;5092408;28;20226;-72
2022/04/10 01:41:13;;;;;;;;;;;2.20;99.90;;;;;;5100900;28;19924;-72
2022/04/10 01:43:44;;;;;;;;;;;2.20;99.90;;;;;;5105579;28;20214;-72
2022/04/10 01:46:11;;;;;;;;;;;2.20;99.90;;;;;;5094206;28;20144;-72
2022/04/10 01:48:38;;;;;;;;;;;2.10;99.90;;;;;;5100601;28;19920;-72
2022/04/10 01:51:04;;;;;;;;;;;2.10;99.90;;;;;;5104327;28;19927;-72
2022/04/10 01:53:31;;;;;;;;;;;2.00;99.90;;;;;;5092015;28;19933;-72
2022/04/10 01:55:58;;;;;;;;;;;1.90;99.90;;;;;;5093628;28;19958;-71
2022/04/10 01:58:25;;;;;;;;;;;1.90;99.90;;;;;;5093207;28;19927;-72
2022/04/10 02:00:52;;;;;;;;;;;1.80;99.90;;;;;;5092323;28;20136;-72
2022/04/10 02:03:19;;;;;;;;;;;1.80;99.90;;;;;;5094684;28;19920;-72
2022/04/10 02:05:45;;;;;;;;;;;1.80;99.90;;;;;;5088860;28;19927;-72
2022/04/10 02:08:13;;;;;;;;;;;1.80;99.90;;;;;;5105117;28;19920;-71
2022/04/10 02:10:39;;;;;;;;;;;1.80;99.90;;;;;;5105101;28;19927;-72
2022/04/10 02:13:07;;;;;;;;;;;1.80;99.90;;;;;;5104953;28;20119;-72
2022/04/10 02:15:37;;;;;;;;;;;1.70;99.90;;;;;;5104436;28;19978;-72
2022/04/10 02:18:03;;;;;;;;;;;1.80;99.90;;;;;;5104570;28;19920;-72
2022/04/10 02:20:30;;;;;;;;;;;1.70;99.90;;;;;;5104838;28;19920;-72
2022/04/10 02:22:57;;;;;;;;;;;1.70;99.90;;;;;;5104867;28;19920;-71
2022/04/10 02:25:23;;;;;;;;;;;1.70;99.90;;;;;;5104209;28;19920;-72
2022/04/10 02:27:50;;;;;;;;;;;1.70;99.90;;;;;;5104562;28;19920;-72
2022/04/10 02:30:18;;;;;;;;;;;1.70;99.90;;;;;;5104668;28;19927;-71
2022/04/10 02:32:45;;;;;;;;;;;1.80;99.90;;;;;;5104485;28;19987;-72
2022/04/10 02:35:12;;;;;;;;;;;1.80;99.90;;;;;;5104655;28;19920;-72
2022/04/10 02:37:39;;;;;;;;;;;1.70;99.90;;;;;;5103677;28;19928;-71
2022/04/10 02:40:06;;;;;;;;;;;1.70;99.90;;;;;;5104593;28;19920;-72
2022/04/10 02:42:34;;;;;;;;;;;1.70;99.90;;;;;;5104730;28;19979;-71
2022/04/10 02:45:01;;;;;;;;;;;1.70;99.90;;;;;;5104123;28;19926;-71
2022/04/10 02:47:28;;;;;;;;;;;1.70;99.90;;;;;;5104282;28;19920;-72
2022/04/10 02:49:55;;;;;;;;;;;1.80;99.90;;;;;;5104404;28;20021;-72
2022/04/10 02:52:22;;;;;;;;;;;1.70;99.90;;;;;;5103907;28;19919;-72
2022/04/10 02:54:49;;;;;;;;;;;1.80;99.90;;;;;;5104361;28;19921;-72
2022/04/10 02:57:15;;;;;;;;;;;1.80;99.90;;;;;;5103578;28;20010;-71
2022/04/10 02:59:42;;;;;;;;;;;1.80;99.90;;;;;;5103984;28;20215;-72
2022/04/10 03:02:08;;;;;;;;;;;1.70;99.90;;;;;;5103338;28;19920;-72
2022/04/10 03:04:35;;;;;;;;;;;1.70;99.90;;;;;;5104011;28;19974;-72
2022/04/10 03:07:03;;;;;;;;;;;1.60;99.90;;;;;;5103350;28;19926;-72
2022/04/10 03:09:30;;;;;;;;;;;1.60;99.90;;;;;;5103817;28;19927;-71
2022/04/10 03:11:56;;;;;;;;;;;1.70;99.90;;;;;;5103442;28;19923;-72
2022/04/10 03:14:23;;;;;;;;;;;1.60;99.90;;;;;;5103888;28;20204;-72
2022/04/10 03:16:49;;;;;;;;;;;1.60;99.90;;;;;;5103519;28;20173;-72
2022/04/10 03:19:16;;;;;;;;;;;1.60;99.90;;;;;;5103507;28;20038;-72
2022/04/10 03:21:43;;;;;;;;;;;1.60;99.90;;;;;;5104092;28;19920;-72
2022/04/10 03:24:10;;;;;;;;;;;1.50;99.90;;;;;;5103749;28;19920;-72
2022/04/10 03:26:37;;;;;;;;;;;1.50;99.90;;;;;;5103413;28;19920;-71
2022/04/10 03:29:04;;;;;;;;;;;1.50;99.90;;;;;;5103602;28;19951;-72
2022/04/10 03:31:31;;;;;;;;;;;1.50;99.90;;;;;;5103550;28;20207;-71
2022/04/10 03:33:57;;;;;;;;;;;1.60;99.90;;;;;;5103681;28;19928;-72
2022/04/10 03:36:24;;;;;;;;;;;1.50;99.90;;;;;;5103521;28;19947;-72
2022/04/10 03:38:50;;;;;;;;;;;1.50;99.90;;;;;;5103204;28;19920;-71
2022/04/10 03:41:18;;;;;;;;;;;1.50;99.90;;;;;;5103147;28;20149;-71
2022/04/10 03:43:45;;;;;;;;;;;1.50;99.90;;;;;;5103193;28;20123;-71
2022/04/10 03:46:11;;;;;;;;;;;1.60;99.90;;;;;;5103369;28;20119;-72
2022/04/10 03:48:38;;;;;;;;;;;1.50;99.90;;;;;;5103184;28;19920;-72
2022/04/10 03:51:04;;;;;;;;;;;1.50;99.90;;;;;;5103626;28;20153;-71
2022/04/10 03:53:31;;;;;;;;;;;1.50;99.90;;;;;;5103283;28;19926;-70
2022/04/10 03:55:57;;;;;;;;;;;1.60;99.90;;;;;;5102930;28;19920;-71
2022/04/10 03:58:25;;;;;;;;;;;1.60;99.90;;;;;;5103050;28;19923;-72
2022/04/10 04:00:52;;;;;;;;;;;1.50;99.90;;;;;;5103408;28;20200;-72
2022/04/10 04:03:18;;;;;;;;;;;1.50;99.90;;;;;;5103829;28;19999;-72
2022/04/10 04:05:45;;;;;;;;;;;1.50;99.90;;;;;;5103286;28;19926;-71
2022/04/10 04:08:12;;;;;;;;;;;1.40;99.90;;;;;;5102769;28;19927;-72
2022/04/10 04:10:38;;;;;;;;;;;1.40;99.90;;;;;;5103001;28;19924;-72
2022/04/10 04:13:05;;;;;;;;;;;1.40;99.90;;;;;;5103218;28;19920;-72
2022/04/10 04:15:33;;;;;;;;;;;1.40;99.90;;;;;;5102867;28;19920;-71
2022/04/10 04:17:59;;;;;;;;;;;1.40;99.90;;;;;;5103010;28;19942;-71
2022/04/10 04:20:26;;;;;;;;;;;1.40;99.90;;;;;;5103066;28;19920;-72
2022/04/10 04:22:53;;;;;;;;;;;1.40;99.90;;;;;;5102882;28;19920;-72
2022/04/10 04:25:20;;;;;;;;;;;1.30;99.90;;;;;;5105638;28;19920;-72
2022/04/10 04:27:47;;;;;;;;;;;1.30;99.90;;;;;;5098374;28;19951;-72
2022/04/10 04:30:13;;;;;;;;;;;1.30;99.90;;;;;;5107068;28;19927;-72
2022/04/10 04:32:41;;;;;;;;;;;1.30;99.90;;;;;;5091437;28;19927;-71
2022/04/10 04:35:10;;;;;;;;;;;1.40;99.90;;;;;;5104840;28;20072;-72
2022/04/10 04:37:40;;;;;;;;;;;1.30;99.90;;;;;;5091586;28;19920;-72
2022/04/10 04:40:07;;;;;;;;;;;1.40;99.90;;;;;;5106879;28;19920;-71
2022/04/10 04:42:33;;;;;;;;;;;1.40;99.90;;;;;;5106383;28;19920;-72
2022/04/10 04:45:00;;;;;;;;;;;1.40;99.90;;;;;;5101271;28;19920;-72
2022/04/10 04:47:27;;;;;;;;;;;1.40;99.90;;;;;;5106417;28;20060;-72
2022/04/10 04:49:55;;;;;;;;;;;1.30;99.90;;;;;;5106487;28;19943;-72
2022/04/10 04:52:22;;;;;;;;;;;1.30;99.90;;;;;;5106594;28;19927;-72
2022/04/10 04:54:48;;;;;;;;;;;1.20;99.90;;;;;;5106459;28;19927;-72
2022/04/10 04:57:15;;;;;;;;;;;1.20;99.90;;;;;;5105961;28;19924;-71
2022/04/10 04:59:41;;;;;;;;;;;1.20;99.90;;;;;;5106376;28;19920;-72
2022/04/10 05:02:08;;;;;;;;;;;1.10;99.90;;;;;;5105669;28;19926;-72
2022/04/10 05:04:35;;;;;;;;;;;1.10;99.90;;;;;;5106102;28;19936;-72
2022/04/10 05:07:03;;;;;;;;;;;1.10;99.90;;;;;;5101994;28;19920;-71
2022/04/10 05:09:29;;;;;;;;;;;1.10;99.90;;;;;;5106311;28;19920;-71
2022/04/10 05:11:56;;;;;;;;;;;1.10;99.90;;;;;;5106219;28;19920;-72
2022/04/10 05:14:23;;;;;;;;;;;1.10;99.90;;;;;;5106004;28;19920;-72
2022/04/10 05:16:49;;;;;;;;;;;1.10;99.90;;;;;;5105434;28;19920;-72
2022/04/10 05:19:16;;;;;;;;;;;1.10;99.90;;;;;;5105917;28;19920;-72
2022/04/10 05:21:42;;;;;;;;;;;1.20;99.90;;;;;;5106082;28;19927;-73
2022/04/10 05:24:10;;;;;;;;;;;1.20;99.90;;;;;;5105878;28;19920;-73
2022/04/10 05:26:37;;;;;;;;;;;1.20;99.90;;;;;;5105749;28;19992;-73
2022/04/10 05:29:04;;;;;;;;;;;1.30;99.90;;;;;;5105729;28;19924;-72
2022/04/10 05:31:30;;;;;;;;;;;1.20;99.90;;;;;;5105758;28;19924;-72
2022/04/10 05:33:57;;;;;;;;;;;1.30;99.90;;;;;;5105729;28;20111;-73
2022/04/10 05:36:23;;;;;;;;;;;1.30;99.90;;;;;;5105023;28;20223;-73
2022/04/10 05:38:50;;;;;;;;;;;1.40;99.90;;;;;;5104650;28;19987;-71
2022/04/10 05:41:18;;;;;;;;;;;1.40;99.90;;;;;;5096154;28;19926;-72
2022/04/10 05:43:44;;;;;;;;;;;1.50;99.90;;;;;;5092786;28;19952;-72
2022/04/10 05:46:11;;;;;;;;;;;1.50;99.90;;;;;;5097499;28;19927;-72
2022/04/10 05:48:37;;;;;;;;;;;1.60;99.90;;;;;;5105266;28;19926;-72
2022/04/10 05:51:04;;;;;;;;;;;1.60;99.90;;;;;;5096378;28;19927;-72
2022/04/10 05:53:31;;;;;;;;;;;1.60;99.90;;;;;;5094320;28;19920;-72
2022/04/10 05:55:57;;;;;;;;;;;1.60;99.90;;;;;;5104377;28;19950;-72
2022/04/10 05:58:25;;;;;;;;;;;1.60;99.90;;;;;;5100359;28;19928;-72
2022/04/10 06:00:52;;;;;;;;;;;1.70;99.90;;;;;;5084675;28;19961;-72
2022/04/10 06:03:19;;;;;;;;;;;1.60;99.90;;;;;;5093947;28;20007;-72
2022/04/10 06:05:46;;;;;;;;;;;1.70;99.90;;;;;;5104851;28;19991;-72
2022/04/10 06:08:12;;;;;;;;;;;1.80;99.90;;;;;;5104955;28;19927;-72
2022/04/10 06:10:40;;;;;;;;;;;1.80;99.90;;;;;;5103927;28;19920;-72
2022/04/10 06:13:07;;;;;;;;;;;1.80;99.90;;;;;;5105048;28;19927;-72
2022/04/10 06:15:35;;;;;;;;;;;1.90;99.90;;;;;;5096066;28;20004;-72
2022/04/10 06:18:01;;;;;;;;;;;1.90;99.90;;;;;;5098603;28;19920;-71
2022/04/10 06:20:28;;;;;;;;;;;1.90;99.90;;;;;;5104569;28;19932;-72
2022/04/10 06:22:54;;;;;;;;;;;2.00;99.90;;;;;;5102089;28;19924;-72
2022/04/10 06:25:21;;;;;;;;;;;2.00;99.90;;;;;;5102832;28;19920;-71
2022/04/10 06:27:48;;;;;;;;;;;2.00;99.90;;;;;;5098946;28;19942;-71
2022/04/10 06:30:14;;;;;;;;;;;2.10;99.90;;;;;;5091126;28;19920;-72
2022/04/10 06:32:42;;;;;;;;;;;2.10;99.90;;;;;;5102832;28;19926;-72
2022/04/10 06:35:09;;;;;;;;;;;2.20;99.90;;;;;;5104061;28;19939;-72
2022/04/10 06:37:38;;;;;;;;;;;2.20;99.90;;;;;;5100754;28;19920;-72
2022/04/10 06:40:05;;;;;;;;;;;2.30;99.90;;;;;;5104913;28;19920;-71
2022/04/10 06:42:32;;;;;;;;;;;2.30;99.90;;;;;;5104219;28;19920;-72
2022/04/10 06:44:58;;;;;;;;;;;2.40;99.90;;;;;;5104203;28;19920;-72
2022/04/10 06:47:27;;;;;;;;;;;2.50;99.90;;;;;;5102793;28;19923;-72
2022/04/10 06:49:57;;;;;;;;;;;2.50;99.90;;;;;;5103785;28;19920;-72
2022/04/10 06:52:23;;;;;;;;;;;2.60;99.90;;;;;;5103321;28;19920;-71
2022/04/10 06:54:50;;;;;;;;;;;2.60;99.90;;;;;;5103453;28;19926;-71
2022/04/10 06:57:17;;;;;;;;;;;2.60;99.90;;;;;;5098039;28;19920;-72
2022/04/10 06:59:43;;;;;;;;;;;2.60;99.90;;;;;;5092499;28;19920;-72
2022/04/10 07:02:10;;;;;;;;;;;2.70;99.90;;;;;;5103612;28;19924;-72
2022/04/10 07:04:37;;;;;;;;;;;2.70;99.90;;;;;;5098384;28;20635;-73
2022/04/10 07:07:05;;;;;;;;;;;2.80;99.90;;;;;;5103096;28;20119;-71
2022/04/10 07:09:31;;;;;;;;;;;2.80;99.90;;;;;;5103629;28;19927;-72
2022/04/10 07:11:58;;;;;;;;;;;2.90;99.90;;;;;;5103570;28;19920;-72
2022/04/10 07:14:24;;;;;;;;;;;2.90;99.90;;;;;;5103883;28;19926;-72
2022/04/10 07:16:51;;;;;;;;;;;3.00;99.90;;;;;;5103547;28;19928;-72
2022/04/10 07:19:18;;;;;;;;;;;3.00;99.90;;;;;;5103569;28;19920;-71
2022/04/10 07:24:30;;;;;;;;;;;3.20;99.90;;;;;;5103473;28;19942;-72
2022/04/10 07:26:56;;;;;;;;;;;3.30;99.90;;;;;;5103684;28;19983;-73
2022/04/10 07:29:23;;;;;;;;;;;3.30;99.90;;;;;;5103662;28;19979;-70
2022/04/10 07:31:49;;;;;;;;;;;3.20;99.90;;;;;;5103373;28;19920;-72
2022/04/10 07:34:16;;;;;;;;;;;3.20;99.90;;;;;;5103179;28;19920;-71
2022/04/10 07:36:43;;;;;;;;;;;3.30;99.90;;;;;;5108744;23;20105;-94
2022/04/10 07:39:10;;;;;;;;;;;3.30;99.90;;;;;;5110693;28;19985;-94
2022/04/10 07:41:38;;;;;;;;;;;3.40;99.90;;;;;;5128041;28;19928;-96
2022/04/10 07:44:05;;;;;;;;;;;4.70;99.90;;;;;;5111891;28;19920;-93
2022/04/10 07:49:18;;;;;;;;;;;3.70;99.90;;;;;;5113659;28;19923;-94
2022/04/10 07:51:45;;;;;;;;;;;3.50;99.90;;;;;;5115136;28;19916;-93
2022/04/10 07:54:14;;;;;;;;;;;3.50;99.90;;;;;;5114329;28;19920;-93
2022/04/10 07:56:47;;;;;;;;;;;3.40;99.90;;;;;;5098622;28;19962;-95
2022/04/10 07:59:13;;;;;;;;;;;3.50;99.90;;;;;;5133646;22;20207;-71
2022/04/10 08:01:41;;;;;;;;;;;3.60;99.90;;;;;;5087803;28;19920;-70
2022/04/10 08:04:07;;;;;;;;;;;3.50;99.90;;;;;;5087650;28;19920;-70
2022/04/10 08:06:34;;;;;;;;;;;3.60;99.90;;;;;;5087671;28;19928;-70
2022/04/10 08:09:01;;;;;;;;;;;3.70;99.90;;;;;;5088014;28;20115;-70
2022/04/10 08:11:28;;;;;;;;;;;3.70;99.90;;;;;;5087496;28;20115;-69
2022/04/10 08:13:56;;;;;;;;;;;3.80;99.90;;;;;;5087403;28;20219;-72
2022/04/10 08:16:22;;;;;;;;;;;3.90;99.90;;;;;;5075653;28;20187;-67
2022/04/10 08:18:49;;;;;;;;;;;3.90;99.90;;;;;;5081453;28;19920;-70
2022/04/10 08:21:15;;;;;;;;;;;4.00;99.90;;;;;;5075015;28;19981;-70
2022/04/10 08:23:42;;;;;;;;;;;4.00;99.90;;;;;;5080170;28;20186;-70
2022/04/10 08:26:09;;;;;;;;;;;4.10;99.90;;;;;;5086618;28;19927;-71
2022/04/10 08:28:35;;;;;;;;;;;4.20;99.90;;;;;;5087008;28;19920;-69
2022/04/10 08:31:03;;;;;;;;;;;4.20;99.90;;;;;;5080255;28;19921;-70
2022/04/10 08:33:30;;;;;;;;;;;4.30;99.90;;;;;;5084805;28;20314;-70
2022/04/10 08:35:57;;;;;;;;;;;4.30;99.90;;;;;;5082432;28;19920;-71
2022/04/10 08:38:23;;;;;;;;;;;4.40;99.90;;;;;;5085578;28;19921;-70
2022/04/10 08:40:52;;;;;;;;;;;4.70;99.90;;;;;;5084651;28;19920;-70
2022/04/10 08:43:20;;;;;;;;;;;4.70;99.90;;;;;;5086161;28;19921;-70
2022/04/10 08:45:47;;;;;;;;;;;4.80;99.90;;;;;;5082861;28;19927;-72
2022/04/10 08:48:15;;;;;;;;;;;4.90;99.90;;;;;;5085721;28;19920;-70
2022/04/10 08:50:43;;;;;;;;;;;4.90;99.90;;;;;;5082505;28;19920;-71
2022/04/10 08:53:10;;;;;;;;;;;5.00;99.90;;;;;;5085830;28;19927;-70
2022/04/10 08:55:36;;;;;;;;;;;5.00;99.90;;;;;;5075874;28;20124;-70
2022/04/10 08:58:03;;;;;;;;;;;5.10;99.90;;;;;;5072305;28;19928;-70
2022/04/10 09:00:30;;;;;;;;;;;5.00;99.90;;;;;;5085938;28;20120;-69
2022/04/10 09:02:56;;;;;;;;;;;5.10;99.90;;;;;;5086148;28;19924;-70
2022/04/10 09:05:26;;;;;;;;;;;5.10;99.90;;;;;;5083965;28;20250;-69
2022/04/10 09:08:08;;;;;;;;;;;5.10;99.90;;;;;;5078756;28;20259;-70
2022/04/10 09:10:54;;;;;;;;;;;5.00;99.90;;;;;;5084434;28;19935;-70
2022/04/10 09:13:24;;;;;;;;;;;5.00;99.90;;;;;;5085852;28;19925;-70
2022/04/10 09:15:51;;;;;;;;;;;5.00;99.90;;;;;;5080892;28;19928;-69
2022/04/10 09:18:17;;;;;;;;;;;5.00;99.90;;;;;;5084367;28;19934;-70
2022/04/10 09:21:04;;;;;;;;;;;5.00;99.90;;;;;;5084970;28;20280;-71
2022/04/10 09:23:31;;;;;;;;;;;5.10;99.90;;;;;;5084281;28;19944;-70
2022/04/10 09:25:58;;;;;;;;;;;5.10;99.90;;;;;;5084230;28;19920;-70
2022/04/10 09:28:40;;;;;;;;;;;5.20;99.90;;;;;;5076633;28;19921;-70
2022/04/10 09:31:23;;;;;;;;;;;5.20;99.90;;;;;;5085403;28;19979;-71
2022/04/10 09:33:50;;;;;;;;;;;5.40;99.90;;;;;;5085953;28;19921;-69
2022/04/10 09:36:29;;;;;;;;;;;5.30;99.90;;;;;;5084663;28;19921;-71
2022/04/10 09:38:55;;;;;;;;;;;5.20;99.90;;;;;;5084375;28;20231;-72
2022/04/10 09:41:22;;;;;;;;;;;5.20;99.90;;;;;;5085395;28;20207;-72
2022/04/10 09:43:48;;;;;;;;;;;5.30;99.90;;;;;;5078667;28;19996;-69
2022/04/10 09:46:15;;;;;;;;;;;5.40;99.90;;;;;;5065196;28;19928;-70
2022/04/10 09:48:41;;;;;;;;;;;5.40;99.90;;;;;;5065819;28;19921;-70
2022/04/10 09:51:10;;;;;;;;;;;5.50;99.90;;;;;;5065873;28;19921;-69
2022/04/10 09:53:38;;;;;;;;;;;5.40;99.90;;;;;;5065722;28;19921;-67
2022/04/10 09:56:07;;;;;;;;;;;5.30;99.90;;;;;;5065118;28;20123;-68
2022/04/10 09:58:34;;;;;;;;;;;5.20;99.90;;;;;;5065351;28;19921;-67
2022/04/10 10:01:03;;;;;;;;;;;5.10;99.90;;;;;;5073621;28;19924;-67
2022/04/10 10:03:30;;;;;;;;;;;5.00;99.90;;;;;;5084951;28;19921;-72
2022/04/10 10:05:58;;;;;;;;;;;5.00;99.90;;;;;;5085023;28;19920;-67
2022/04/10 10:08:25;;;;;;;;;;;4.80;99.90;;;;;;5085099;28;19942;-68
2022/04/10 10:10:53;;;;;;;;;;;4.90;99.90;;;;;;5084849;28;19935;-68
2022/04/10 10:13:26;;;;;;;;;;;4.90;99.90;;;;;;5084331;28;19921;-67
2022/04/10 10:15:53;;;;;;;;;;;4.90;99.90;;;;;;5084616;28;19958;-67
2022/04/10 10:18:21;;;;;;;;;;;4.90;99.90;;;;;;5084505;28;19920;-68
2022/04/10 10:20:48;;;;;;;;;;;4.80;99.90;;;;;;5084718;28;19921;-68
2022/04/10 10:23:15;;;;;;;;;;;4.70;99.90;;;;;;5076079;28;20093;-68
2022/04/10 10:25:44;;;;;;;;;;;4.70;99.90;;;;;;5083875;28;19928;-67
2022/04/10 10:28:26;;;;;;;;;;;4.60;99.90;;;;;;5084578;28;20116;-68
2022/04/10 10:30:59;;;;;;;;;;;4.40;99.90;;;;;;5081899;28;19920;-69
2022/04/10 10:33:27;;;;;;;;;;;4.30;99.90;;;;;;5084551;28;19926;-68
2022/04/10 10:35:56;;;;;;;;;;;4.20;99.90;;;;;;5084267;28;20115;-68
2022/04/10 10:38:23;;;;;;;;;;;4.20;99.90;;;;;;5084365;28;19927;-69
2022/04/10 10:40:50;;;;;;;;;;;4.10;99.90;;;;;;5081007;28;20231;-69
2022/04/10 10:43:21;;;;;;;;;;;4.00;99.90;;;;;;5084311;28;19920;-68
2022/04/10 10:45:49;;;;;;;;;;;4.10;99.90;;;;;;5084228;28;19927;-68
2022/04/10 10:48:34;;;;;;;;;;;4.10;99.90;;;;;;5082877;28;19921;-68
2022/04/10 10:51:03;;;;;;;;;;;4.00;99.90;;;;;;5073322;28;19927;-68
2022/04/10 10:53:43;;;;;;;;;;;4.10;99.90;;;;;;5076353;28;19927;-67
2022/04/10 10:56:13;;;;;;;;;;;4.00;99.90;;;;;;5063948;28;19959;-67
2022/04/10 10:58:40;;;;;;;;;;;4.10;99.90;;;;;;5082602;28;19920;-67
2022/04/10 11:01:08;;;;;;;;;;;4.00;99.90;;;;;;5083270;28;19948;-71
2022/04/10 11:03:58;;;;;;;;;;;3.90;99.90;;;;;;5083126;28;19927;-67
2022/04/10 11:06:28;;;;;;;;;;;3.80;99.90;;;;;;5081353;28;19920;-67
2022/04/10 11:08:55;;;;;;;;;;;4.00;99.90;;;;;;5082663;28;19921;-67
2022/04/10 11:11:34;;;;;;;;;;;4.00;99.90;;;;;;5079565;28;21978;-67
2022/04/10 11:14:01;;;;;;;;;;;4.10;99.90;;;;;;5083724;28;20242;-67
2022/04/10 11:16:29;;;;;;;;;;;4.30;99.90;;;;;;5082395;28;20158;-69
2022/04/10 11:19:02;;;;;;;;;;;4.50;99.90;;;;;;5083642;28;20227;-67
2022/04/10 11:21:31;;;;;;;;;;;4.60;99.90;;;;;;5081539;28;21026;-68
2022/04/10 11:23:59;;;;;;;;;;;4.90;99.90;;;;;;5083522;28;19992;-67
2022/04/10 11:26:34;;;;;;;;;;;5.00;99.90;;;;;;5083261;28;19926;-67
2022/04/10 11:29:03;;;;;;;;;;;5.30;99.90;;;;;;5080299;28;19987;-66
2022/04/10 11:31:31;;;;;;;;;;;5.50;99.90;;;;;;5083443;28;19991;-66
2022/04/10 11:34:07;;;;;;;;;;;5.70;99.90;;;;;;5083446;28;19920;-66
2022/04/10 11:36:45;;;;;;;;;;;5.70;99.90;;;;;;5083067;28;20255;-67
2022/04/10 11:39:12;;;;;;;;;;;5.70;99.90;;;;;;5083661;28;20154;-70
2022/04/10 11:41:41;;;;;;;;;;;5.70;99.90;;;;;;5083310;28;20212;-68
2022/04/10 11:44:08;;;;;;;;;;;5.50;99.90;;;;;;5082204;28;19926;-68
2022/04/10 11:46:35;;;;;;;;;;;5.30;99.90;;;;;;5083166;28;19920;-68
2022/04/10 11:49:02;;;;;;;;;;;5.30;99.90;;;;;;5083456;28;19982;-68
2022/04/10 11:51:28;;;;;;;;;;;5.40;99.90;;;;;;5083368;28;19926;-68
2022/04/10 11:53:58;;;;;;;;;;;5.40;99.90;;;;;;5083620;28;19927;-68
2022/04/10 11:56:25;;;;;;;;;;;5.50;99.90;;;;;;5083152;28;19962;-68
2022/04/10 11:58:51;;;;;;;;;;;5.50;99.90;;;;;;5083073;28;20213;-66
2022/04/10 12:01:19;;;;;;;;;;;5.60;99.90;;;;;;5082703;28;19928;-68
2022/04/10 12:03:49;;;;;;;;;;;5.80;99.90;;;;;;5071206;28;20116;-66
2022/04/10 12:06:19;;;;;;;;;;;5.90;99.90;;;;;;5062453;28;19924;-68
2022/04/10 12:08:55;;;;;;;;;;;6.00;99.90;;;;;;5062124;28;19966;-68
2022/04/10 12:11:23;;;;;;;;;;;6.30;99.90;;;;;;5063047;28;19925;-68
2022/04/10 12:13:49;;;;;;;;;;;6.40;99.90;;;;;;5062962;28;19920;-68
2022/04/10 12:16:17;;;;;;;;;;;6.60;99.90;;;;;;5078048;28;19920;-68
2022/04/10 12:18:48;;;;;;;;;;;6.70;99.90;;;;;;5082805;28;19967;-69
2022/04/10 12:21:14;;;;;;;;;;;6.70;99.90;;;;;;5082641;28;19920;-69
2022/04/10 12:23:41;;;;;;;;;;;6.60;99.90;;;;;;5073156;28;19921;-69
2022/04/10 12:26:08;;;;;;;;;;;6.40;99.90;;;;;;5082391;28;19920;-68
2022/04/10 12:28:38;;;;;;;;;;;6.30;99.90;;;;;;5071350;28;20116;-68
2022/04/10 12:31:05;;;;;;;;;;;6.50;99.90;;;;;;5071675;28;20222;-68
2022/04/10 12:33:32;;;;;;;;;;;6.90;99.90;;;;;;5069147;28;19928;-68
2022/04/10 12:35:59;;;;;;;;;;;7.20;99.90;;;;;;5082441;28;19927;-70
2022/04/10 12:38:28;;;;;;;;;;;7.30;99.90;;;;;;5083087;28;19920;-68
2022/04/10 12:41:03;;;;;;;;;;;7.30;99.90;;;;;;5082769;28;19929;-67
2022/04/10 12:43:30;;;;;;;;;;;6.80;99.90;;;;;;5081189;28;20212;-68
2022/04/10 12:46:09;;;;;;;;;;;6.70;99.90;;;;;;5084929;28;19920;-68
2022/04/10 12:48:37;;;;;;;;;;;6.50;99.90;;;;;;5086770;28;19920;-70
2022/04/10 12:51:04;;;;;;;;;;;6.70;99.90;;;;;;5087123;28;19920;-72
2022/04/10 12:53:31;;;;;;;;;;;7.10;99.90;;;;;;5086557;28;19921;-67
2022/04/10 12:55:57;;;;;;;;;;;7.20;99.90;;;;;;5085709;28;19920;-66
2022/04/10 12:58:28;;;;;;;;;;;7.30;99.90;;;;;;5086055;28;19928;-66
2022/04/10 13:00:56;;;;;;;;;;;7.50;99.90;;;;;;5086064;28;20219;-67
2022/04/10 13:03:24;;;;;;;;;;;7.70;99.90;;;;;;5085272;28;20135;-68
2022/04/10 13:05:55;;;;;;;;;;;7.80;99.90;;;;;;5084629;28;20212;-66
2022/04/10 13:08:23;;;;;;;;;;;7.80;99.90;;;;;;5086153;28;19920;-67
2022/04/10 13:10:50;;;;;;;;;;;8.00;99.90;;;;;;5085754;28;20085;-67
2022/04/10 13:13:17;;;;;;;;;;;8.10;99.90;;;;;;5086294;28;19920;-67
2022/04/10 13:15:43;;;;;;;;;;;8.00;99.90;;;;;;5086035;28;19921;-67
2022/04/10 13:18:10;;;;;;;;;;;8.00;99.90;;;;;;5085989;28;20204;-67
2022/04/10 13:20:39;;;;;;;;;;;8.20;99.90;;;;;;5086198;28;19927;-67
2022/04/10 13:23:08;;;;;;;;;;;8.40;99.90;;;;;;5078053;28;19925;-66
2022/04/10 13:25:36;;;;;;;;;;;8.30;99.90;;;;;;5083119;28;19969;-66
2022/04/10 13:28:03;;;;;;;;;;;8.20;99.90;;;;;;5083200;28;19927;-67
2022/04/10 13:30:30;;;;;;;;;;;8.20;99.90;;;;;;5085512;28;19927;-67
2022/04/10 13:32:58;;;;;;;;;;;8.10;99.90;;;;;;5085925;28;19924;-66
2022/04/10 13:35:25;;;;;;;;;;;7.90;99.90;;;;;;5085592;28;19943;-67
2022/04/10 13:37:53;;;;;;;;;;;7.70;99.90;;;;;;5085802;28;20166;-66
2022/04/10 13:40:19;;;;;;;;;;;7.70;99.90;;;;;;5085970;28;19920;-67
2022/04/10 13:42:49;;;;;;;;;;;7.90;99.90;;;;;;5085094;28;19920;-67
2022/04/10 13:45:16;;;;;;;;;;;8.00;99.90;;;;;;5084630;28;19952;-67
2022/04/10 13:47:42;;;;;;;;;;;8.10;99.90;;;;;;5085349;28;19935;-67
2022/04/10 13:50:09;;;;;;;;;;;8.00;99.90;;;;;;5084950;28;19928;-67
2022/04/10 13:52:37;;;;;;;;;;;7.80;99.90;;;;;;5082878;28;19927;-67
2022/04/10 13:55:05;;;;;;;;;;;7.50;99.90;;;;;;5084354;28;19920;-67
2022/04/10 13:57:32;;;;;;;;;;;7.60;99.90;;;;;;5083224;28;19921;-67
2022/04/10 13:59:58;;;;;;;;;;;7.90;99.90;;;;;;5084624;28;19921;-67
2022/04/10 14:02:25;;;;;;;;;;;8.00;99.90;;;;;;5083714;28;19921;-67
2022/04/10 14:04:52;;;;;;;;;;;8.30;99.90;;;;;;5084879;28;19920;-67
2022/04/10 14:07:19;;;;;;;;;;;8.40;99.90;;;;;;5084281;28;20093;-67
2022/04/10 14:09:45;;;;;;;;;;;8.30;99.90;;;;;;5085103;28;19950;-67
2022/04/10 14:12:13;;;;;;;;;;;8.20;99.90;;;;;;5085046;28;19926;-67
2022/04/10 14:14:40;;;;;;;;;;;8.30;99.90;;;;;;5084590;28;20158;-67
2022/04/10 14:17:07;;;;;;;;;;;8.50;99.90;;;;;;5084614;28;19920;-67
2022/04/10 14:19:34;;;;;;;;;;;8.40;99.90;;;;;;5084251;28;20157;-67
2022/04/10 14:22:00;;;;;;;;;;;8.30;99.90;;;;;;5083656;28;19921;-67
2022/04/10 14:24:27;;;;;;;;;;;8.60;99.90;;;;;;5076882;28;19928;-66
2022/04/10 14:26:57;;;;;;;;;;;8.80;99.90;;;;;;5084091;28;19944;-67
2022/04/10 14:29:25;;;;;;;;;;;9.10;99.90;;;;;;5073338;28;19920;-67
2022/04/10 14:31:51;;;;;;;;;;;9.40;99.90;;;;;;5084662;28;19921;-67
2022/04/10 14:34:19;;;;;;;;;;;9.20;99.90;;;;;;5084381;28;19920;-67
2022/04/10 14:36:46;;;;;;;;;;;9.00;99.90;;;;;;5083956;28;19943;-67
2022/04/10 14:39:12;;;;;;;;;;;8.50;99.90;;;;;;5084257;28;19920;-66